This is the latest recevied weather packets stored in our database for station/object JA7ZQY-10. If no packets are shown the sender has not sent any weather packets the latest 10 day(s).
| Time | Temp. | Humidity | Pressure | Rain* | Wind** | Luminosity | Snow |
|---|---|---|---|---|---|---|---|
| 1777899289 | 9.44° C | 80% | 1003.9 hPa | 0.25 mm | - | - | - |
| 1777898691 | 9.44° C | 82% | 1003.4 hPa | 0.25 mm | - | - | - |
| 1777898089 | 9.44° C | 83% | 1003.1 hPa | 0 mm | - | - | - |
| 1777897490 | 9.44° C | 84% | 1002.5 hPa | 0 mm | - | - | - |
| 1777896889 | 9.44° C | 83% | 1002.2 hPa | 0 mm | - | - | - |
| 1777896290 | 9.44° C | 82% | 1001.8 hPa | 0 mm | - | - | - |
| 1777895691 | 10° C | 81% | 1001.6 hPa | 0.25 mm | - | - | - |
| 1777895090 | 10° C | 84% | 1001.2 hPa | 0.51 mm | - | - | - |
| 1777894490 | 10° C | 85% | 1000.8 hPa | 0.51 mm | - | - | - |
| 1777893891 | 10° C | 87% | 1000.4 hPa | 0.51 mm | - | - | - |
| 1777893291 | 10° C | 87% | 999.6 hPa | 0.51 mm | - | - | - |
| 1777892690 | 10.56° C | 86% | 998.8 hPa | 0.51 mm | - | - | - |
| 1777892090 | 10.56° C | 82% | 998.2 hPa | 0.25 mm | - | - | - |
| 1777891491 | 12.22° C | 72% | 997.8 hPa | 0 mm | - | - | - |
| 1777890889 | 12.78° C | 69% | 997.6 hPa | 0 mm | - | - | - |
| 1777890291 | 12.78° C | 70% | 998 hPa | 0 mm | - | - | - |
| 1777889691 | 13.33° C | 70% | 997.7 hPa | 0 mm | - | - | - |
| 1777889090 | 13.33° C | 70% | 997.7 hPa | 0 mm | - | - | - |
| 1777888490 | 13.33° C | 68% | 997.6 hPa | 0 mm | - | - | - |
| 1777887890 | 13.89° C | 68% | 997.1 hPa | 0 mm | - | - | - |
| 1777887290 | 13.89° C | 68% | 996.9 hPa | 0 mm | - | - | - |
| 1777886691 | 14.44° C | 68% | 996.6 hPa | 0 mm | - | - | - |
| 1777886090 | 14.44° C | 68% | 996.3 hPa | 0 mm | - | - | - |
| 1777885491 | 14.44° C | 67% | 996.3 hPa | 0 mm | - | - | - |
| 1777884891 | 14.44° C | 66% | 996 hPa | 0 mm | - | - | - |
* Rain latest hour (hover to see other rain measurements)
** Current wind speed in m/s (hover to see current wind gust speed)